createdAt,value
2022-12-05T00:01:45.019Z,102885.22
2022-12-05T00:04:14.214Z,102888.11
2022-12-05T00:06:42.379Z,102889.66
2022-12-05T00:09:12.568Z,102888.48
2022-12-05T00:11:42.876Z,102884.21
2022-12-05T00:14:12.514Z,102883.02
2022-12-05T00:16:42.066Z,102884.20
2022-12-05T00:19:13.694Z,102886.42
2022-12-05T00:21:42.426Z,102891.21
2022-12-05T00:24:15.174Z,102891.86
2022-12-05T00:26:43.821Z,102890.33
2022-12-05T00:29:12.040Z,102889.47
2022-12-05T00:31:40.285Z,102893.04
2022-12-05T00:34:08.598Z,102892.03
2022-12-05T00:36:37.178Z,102887.08
2022-12-05T00:39:11.297Z,102892.50
2022-12-05T00:41:41.674Z,102889.11
2022-12-05T00:44:12.565Z,102894.86
2022-12-05T00:46:40.259Z,102893.33
2022-12-05T00:49:07.875Z,102897.08
2022-12-05T00:51:41.591Z,102887.21
2022-12-05T00:54:15.205Z,102891.08
2022-12-05T00:56:44.131Z,102894.33
2022-12-05T00:59:19.834Z,102893.63
2022-12-05T01:01:50.727Z,102895.67
2022-12-05T01:04:24.225Z,102891.41
2022-12-05T01:06:56.072Z,102893.29
2022-12-05T01:09:23.741Z,102895.50
2022-12-05T01:11:51.446Z,102893.95
2022-12-05T01:14:25.653Z,102891.55
2022-12-05T01:16:55.609Z,102890.54
2022-12-05T01:19:30.465Z,102885.59
2022-12-05T01:21:59.607Z,102884.52
2022-12-05T01:24:29.028Z,102885.20
2022-12-05T01:26:58.394Z,102881.98
2022-12-05T01:29:26.819Z,102881.98
2022-12-05T01:31:55.114Z,102873.48
2022-12-05T01:34:23.550Z,102872.13
2022-12-05T01:36:51.207Z,102877.88
2022-12-05T01:39:18.782Z,102877.20
2022-12-05T01:41:49.097Z,102876.19
2022-12-05T01:44:16.349Z,102875.84
2022-12-05T01:46:48.337Z,102874.14
2022-12-05T01:49:26.035Z,102870.38
2022-12-05T01:52:19.329Z,102869.16
2022-12-05T01:54:50.214Z,102863.73
2022-12-05T01:57:18.397Z,102859.77
2022-12-05T01:59:50.556Z,102860.81
2022-12-05T02:02:18.629Z,102856.02
2022-12-05T02:05:02.806Z,102856.35
2022-12-05T02:07:32.279Z,102854.11
2022-12-05T02:10:00.047Z,102848.99
2022-12-05T02:12:28.244Z,102847.65
2022-12-05T02:15:35.500Z,102845.77
2022-12-05T02:18:39.009Z,102844.94
2022-12-05T02:21:55.398Z,102837.12
2022-12-05T02:25:03.430Z,102832.68
2022-12-05T02:28:04.342Z,102831.48
2022-12-05T02:30:41.658Z,102836.96
2022-12-05T02:33:50.930Z,102832.87
2022-12-05T02:36:53.922Z,102832.18
2022-12-05T02:39:36.045Z,102833.20
2022-12-05T02:42:17.352Z,102833.54
2022-12-05T02:45:07.323Z,102834.90
2022-12-05T02:47:47.803Z,102836.79
2022-12-05T02:50:22.012Z,102840.55
2022-12-05T02:52:53.436Z,102836.80
2022-12-05T02:55:22.260Z,102832.71
2022-12-05T02:58:02.220Z,102828.80
2022-12-05T03:00:31.228Z,102832.73
2022-12-05T03:02:59.768Z,102826.39
2022-12-05T03:05:57.189Z,102826.18
2022-12-05T03:08:35.908Z,102826.52
2022-12-05T03:11:06.326Z,102828.75
2022-12-05T03:13:43.874Z,102826.38
2022-12-05T03:16:37.063Z,102829.27
2022-12-05T03:19:13.226Z,102830.64
2022-12-05T03:21:54.998Z,102834.55
2022-12-05T03:24:22.893Z,102833.70
2022-12-05T03:27:24.153Z,102831.83
2022-12-05T03:30:02.132Z,102834.73
2022-12-05T03:33:05.227Z,102831.31
2022-12-05T03:35:40.121Z,102834.88
2022-12-05T03:38:24.220Z,102835.03
2022-12-05T03:41:23.272Z,102831.94
2022-12-05T03:44:29.185Z,102833.11
2022-12-05T03:47:01.034Z,102831.41
2022-12-05T03:49:34.988Z,102827.83
2022-12-05T03:52:12.339Z,102829.20
2022-12-05T03:55:03.522Z,102828.38
2022-12-05T03:57:48.337Z,102827.02
2022-12-05T04:00:22.101Z,102832.65
2022-12-05T04:02:56.558Z,102832.67
2022-12-05T04:05:38.898Z,102832.70
2022-12-05T04:08:31.782Z,102831.38
2022-12-05T04:11:04.879Z,102831.02
2022-12-05T04:14:04.425Z,102832.20
2022-12-05T04:17:02.000Z,102836.27
2022-12-05T04:20:11.594Z,102834.23
2022-12-05T04:22:40.365Z,102837.66
2022-12-05T04:25:29.599Z,102840.90
2022-12-05T04:28:33.428Z,102837.67
2022-12-05T04:31:19.334Z,102838.86
2022-12-05T04:33:56.543Z,102834.79
2022-12-05T04:37:03.549Z,102831.89
2022-12-05T04:39:52.922Z,102831.02
2022-12-05T04:42:25.751Z,102832.05
2022-12-05T04:44:57.619Z,102831.05
2022-12-05T04:47:29.832Z,102829.36
2022-12-05T04:49:59.277Z,102832.25
2022-12-05T04:52:29.092Z,102833.79
2022-12-05T04:55:25.696Z,102832.92
2022-12-05T04:58:16.325Z,102828.34
2022-12-05T05:00:58.278Z,102828.66
2022-12-05T05:03:39.930Z,102825.60
2022-12-05T05:06:07.668Z,102824.77
2022-12-05T05:08:35.917Z,102821.34
2022-12-05T05:11:15.045Z,102819.45
2022-12-05T05:13:44.947Z,102821.16
2022-12-05T05:16:18.825Z,102818.63
2022-12-05T05:18:48.777Z,102819.30
2022-12-05T05:21:31.541Z,102817.59
2022-12-05T05:24:00.070Z,102816.21
2022-12-05T05:26:30.202Z,102816.54
2022-12-05T05:28:58.679Z,102817.23
2022-12-05T05:31:29.177Z,102820.32
2022-12-05T05:34:06.012Z,102823.71
2022-12-05T05:36:39.267Z,102821.86
2022-12-05T05:39:12.370Z,102824.77
2022-12-05T05:41:40.373Z,102829.02
2022-12-05T05:44:08.244Z,102829.40
2022-12-05T05:46:36.604Z,102832.80
2022-12-05T05:49:06.420Z,102835.51
2022-12-05T05:51:35.509Z,102833.60
2022-12-05T05:54:04.927Z,102839.07
2022-12-05T05:56:52.636Z,102839.41
2022-12-05T05:59:26.865Z,102840.63
2022-12-05T06:01:59.388Z,102840.09
2022-12-05T06:04:48.051Z,102842.64
2022-12-05T06:07:43.444Z,102841.74
2022-12-05T06:10:12.632Z,102827.89
2022-12-05T06:12:51.936Z,102838.03
2022-12-05T06:15:25.197Z,102844.15
2022-12-05T06:18:08.875Z,102846.87
2022-12-05T06:20:38.216Z,102846.67
2022-12-05T06:23:11.810Z,102845.13
2022-12-05T06:25:57.347Z,102845.80
2022-12-05T06:28:31.037Z,102845.98
2022-12-05T06:31:13.334Z,102848.21
2022-12-05T06:34:13.108Z,102849.52
2022-12-05T06:37:03.980Z,102847.42
2022-12-05T06:39:54.040Z,102847.91
2022-12-05T06:42:30.796Z,102851.83
2022-12-05T06:45:09.742Z,102853.32
2022-12-05T06:48:10.286Z,102850.39
2022-12-05T07:04:49.621Z,102848.73
2022-12-05T07:07:25.212Z,102853.83
2022-12-05T07:10:23.883Z,102853.73
2022-12-05T07:13:19.891Z,102854.14
2022-12-05T07:16:20.328Z,102857.73
2022-12-05T07:20:00.939Z,102857.45
2022-12-05T07:25:44.563Z,102853.55
2022-12-05T07:28:15.435Z,102856.10
2022-12-05T07:30:51.478Z,102855.59
2022-12-05T07:33:47.836Z,102858.27
2022-12-05T07:36:39.049Z,102855.30
2022-12-05T07:39:20.261Z,102859.66
2022-12-05T07:42:03.194Z,102860.94
2022-12-05T07:44:33.719Z,102862.77
2022-12-05T07:47:05.905Z,102859.23
2022-12-05T07:49:54.498Z,102858.55
2022-12-05T13:18:53.051Z,102615.92
2022-12-05T13:21:26.043Z,102614.11
2022-12-05T13:24:39.160Z,102615.79
2022-12-05T13:27:39.760Z,102616.77
2022-12-05T13:30:30.772Z,102614.30
2022-12-05T13:33:32.618Z,102610.63
2022-12-05T13:36:40.535Z,102613.26
2022-12-05T13:43:29.893Z,102614.84
2022-12-05T13:46:49.369Z,102618.02
2022-12-05T13:53:43.344Z,102608.58
2022-12-05T13:56:20.879Z,102610.99
2022-12-05T13:59:07.106Z,102611.91
2022-12-05T14:04:57.453Z,102612.54
2022-12-05T14:07:53.358Z,102613.73
2022-12-05T14:10:47.193Z,102609.61
2022-12-05T14:13:26.636Z,102609.45
2022-12-05T14:16:32.847Z,102608.26
2022-12-05T14:20:29.683Z,102610.69
2022-12-05T14:23:43.511Z,102610.52
2022-12-05T14:26:35.896Z,102610.98
2022-12-05T14:29:37.796Z,102611.30
2022-12-05T14:32:35.245Z,102609.80
2022-12-05T14:35:37.995Z,102610.52
2022-12-05T14:38:41.486Z,102616.55
2022-12-05T14:41:42.324Z,102612.80
2022-12-05T14:44:20.495Z,102615.52
2022-12-05T14:46:49.765Z,102616.05
2022-12-05T14:50:22.741Z,102614.73
2022-12-05T14:53:26.099Z,102611.37
2022-12-05T14:59:55.069Z,102617.24
2022-12-05T15:03:00.740Z,102620.45
2022-12-05T15:06:19.193Z,102619.85
2022-12-05T15:14:01.090Z,102611.36
2022-12-05T15:17:00.515Z,102616.68
2022-12-05T15:24:25.897Z,102613.13
2022-12-05T15:27:58.626Z,102613.86
2022-12-05T15:31:05.187Z,102621.09
2022-12-05T15:34:04.945Z,102625.55
2022-12-05T15:36:45.050Z,102628.27
2022-12-05T15:40:25.190Z,102626.55
2022-12-05T15:43:03.538Z,102628.27
2022-12-05T15:45:47.583Z,102631.21
2022-12-05T15:48:45.158Z,102630.95
2022-12-05T15:52:15.283Z,102634.77
2022-12-05T15:55:25.097Z,102636.45
2022-12-05T15:58:13.452Z,102636.64
2022-12-05T16:01:17.016Z,102633.43
2022-12-05T16:04:35.812Z,102637.64
2022-12-05T16:07:48.363Z,102640.79
2022-12-05T16:10:29.943Z,102634.31
2022-12-05T16:14:50.983Z,102634.83
2022-12-05T16:17:43.434Z,102631.41
2022-12-05T16:20:38.141Z,102628.88
2022-12-05T16:23:45.839Z,102636.59
2022-12-05T16:26:47.154Z,102637.77
2022-12-05T16:29:39.594Z,102635.74
2022-12-05T16:32:48.915Z,102635.73
2022-12-05T16:38:55.202Z,102633.88
2022-12-05T16:41:40.803Z,102635.26
2022-12-05T16:44:30.548Z,102636.32
2022-12-05T16:47:07.619Z,102634.81
2022-12-05T16:49:49.932Z,102634.14
2022-12-05T16:52:36.671Z,102632.95
2022-12-05T16:55:22.876Z,102632.10
2022-12-05T16:58:08.566Z,102630.77
2022-12-05T17:01:09.860Z,102631.46
2022-12-05T17:04:06.342Z,102631.64
2022-12-05T17:06:43.308Z,102630.63
2022-12-05T17:10:00.038Z,102629.75
2022-12-05T17:12:42.297Z,102625.34
2022-12-05T17:15:27.816Z,102621.98
2022-12-05T17:18:27.907Z,102619.29
2022-12-05T17:21:22.299Z,102619.64
2022-12-05T17:40:44.495Z,102603.52
2022-12-05T17:43:24.529Z,102606.52
2022-12-05T17:46:00.961Z,102608.45
2022-12-05T17:48:55.495Z,102612.52
2022-12-05T17:52:20.456Z,102616.17
2022-12-05T17:54:52.576Z,102622.20
2022-12-05T17:57:23.808Z,102628.20
2022-12-05T17:59:57.419Z,102629.44
2022-12-05T18:02:29.150Z,102634.21
2022-12-05T18:05:01.585Z,102636.46
2022-12-05T18:08:18.524Z,102635.13
2022-12-05T18:10:59.008Z,102634.49
2022-12-05T18:13:33.297Z,102634.18
2022-12-05T18:16:05.339Z,102634.02
2022-12-05T18:18:47.876Z,102633.48
2022-12-05T18:21:17.735Z,102633.16
2022-12-05T18:23:45.799Z,102635.02
2022-12-05T18:26:18.750Z,102631.77
2022-12-05T18:42:39.542Z,102622.84
2022-12-05T18:45:08.165Z,102613.76
2022-12-05T18:47:35.908Z,102610.63
2022-12-05T19:03:40.909Z,102603.78
2022-12-05T19:17:05.747Z,102595.39
2022-12-05T19:19:35.021Z,102593.20
2022-12-05T19:22:28.231Z,102594.30
2022-12-05T19:25:01.275Z,102595.81
2022-12-05T19:27:41.802Z,102598.48
2022-12-05T19:30:12.569Z,102602.15
2022-12-05T19:32:41.907Z,102599.35
2022-12-05T19:35:12.627Z,102599.92
2022-12-05T19:37:43.943Z,102600.81
2022-12-05T19:40:13.155Z,102603.24
2022-12-05T19:42:43.229Z,102603.45
2022-12-05T19:45:17.881Z,102604.38
2022-12-05T19:48:07.801Z,102603.92
2022-12-05T19:50:38.362Z,102599.23
2022-12-05T19:53:11.189Z,102600.77
2022-12-05T19:55:40.688Z,102597.86
2022-12-05T19:58:09.769Z,102593.23
2022-12-05T20:00:38.910Z,102590.50
2022-12-05T20:03:12.115Z,102593.78
2022-12-05T20:06:00.168Z,102592.96
2022-12-05T20:08:29.424Z,102591.43
2022-12-05T20:11:07.034Z,102588.20
2022-12-05T20:13:52.311Z,102585.15
2022-12-05T20:16:26.011Z,102581.41
2022-12-05T20:19:00.681Z,102583.79
2022-12-05T20:21:32.499Z,102580.55
2022-12-05T20:24:04.612Z,102580.21
2022-12-05T20:26:37.619Z,102577.83
2022-12-05T20:29:07.785Z,102572.21
2022-12-05T20:31:43.285Z,102568.81
2022-12-05T20:34:15.692Z,102567.95
2022-12-05T20:36:48.280Z,102566.23
2022-12-05T20:39:18.202Z,102564.55
2022-12-05T20:41:59.355Z,102561.15
2022-12-05T20:44:28.840Z,102557.61
2022-12-05T20:46:58.175Z,102556.27
2022-12-05T20:49:27.171Z,102554.42
2022-12-05T20:51:57.126Z,102550.86
2022-12-05T20:54:26.787Z,102550.55
2022-12-05T20:56:56.747Z,102547.15
2022-12-05T20:59:26.180Z,102546.45
2022-12-05T21:01:59.836Z,102545.41
2022-12-05T21:04:41.341Z,102544.40
2022-12-05T21:07:10.539Z,102541.34
2022-12-05T21:09:40.101Z,102542.20
2022-12-05T21:12:18.103Z,102537.80
2022-12-05T21:15:02.085Z,102538.66
2022-12-05T21:17:31.856Z,102531.33
2022-12-05T21:20:01.507Z,102532.88
2022-12-05T21:22:35.385Z,102529.63
2022-12-05T21:25:10.521Z,102530.16
2022-12-05T21:27:40.356Z,102524.73
2022-12-05T21:30:10.179Z,102521.99
2022-12-05T21:32:41.191Z,102516.35
2022-12-05T21:35:12.734Z,102512.60
2022-12-05T21:37:42.710Z,102509.89
2022-12-05T21:40:12.337Z,102505.15
2022-12-05T21:42:41.953Z,102504.50
2022-12-05T21:45:11.198Z,102501.63
2022-12-05T21:47:40.530Z,102501.79
2022-12-05T21:50:10.170Z,102497.35
2022-12-05T21:52:40.089Z,102492.54
2022-12-05T21:55:11.404Z,102490.16
2022-12-05T21:57:47.861Z,102488.80
2022-12-05T22:00:17.518Z,102480.13
2022-12-05T22:16:43.656Z,102467.25
2022-12-05T22:19:11.154Z,102464.36
2022-12-05T22:21:38.767Z,102462.08
2022-12-05T22:24:07.181Z,102456.90
2022-12-05T22:26:35.080Z,102456.42
2022-12-05T22:29:02.702Z,102457.69
2022-12-05T22:31:30.472Z,102453.51
2022-12-05T22:33:58.332Z,102456.63
2022-12-05T22:36:27.062Z,102451.23
2022-12-05T22:38:54.919Z,102450.43
2022-12-05T22:41:25.722Z,102449.25
2022-12-05T22:43:57.122Z,102447.38
2022-12-05T22:46:25.962Z,102441.25
2022-12-05T22:48:53.887Z,102435.84
2022-12-05T22:51:22.212Z,102436.06
2022-12-05T22:53:51.689Z,102432.86
2022-12-05T22:56:20.903Z,102427.41
2022-12-05T22:58:49.561Z,102423.85
2022-12-05T23:01:20.017Z,102422.84
2022-12-05T23:03:49.842Z,102420.28
2022-12-05T23:06:18.875Z,102418.24
2022-12-05T23:08:47.495Z,102418.10
2022-12-05T23:11:16.256Z,102414.39
2022-12-05T23:13:45.541Z,102416.77
2022-12-05T23:16:23.126Z,102413.14
2022-12-05T23:18:53.160Z,102408.69
2022-12-05T23:21:33.793Z,102401.33
2022-12-05T23:24:08.466Z,102397.27
2022-12-05T23:26:45.524Z,102394.04
2022-12-05T23:29:14.214Z,102390.48
2022-12-05T23:31:43.362Z,102388.11
2022-12-05T23:34:11.511Z,102386.06
2022-12-05T23:36:39.617Z,102383.84
2022-12-05T23:39:07.157Z,102385.20
2022-12-05T23:41:34.519Z,102382.30
2022-12-05T23:44:02.269Z,102382.61
2022-12-05T23:46:29.767Z,102377.52
2022-12-05T23:48:57.651Z,102377.20
2022-12-05T23:51:27.979Z,102376.52
2022-12-05T23:53:58.250Z,102374.65
2022-12-05T23:56:29.753Z,102373.80
2022-12-05T23:58:58.058Z,102378.23
